Time;durP1;ratioP1;P1;durP2;ratioP2;P2;SDS_P1;SDS_P2;PMS_P1;PMS_P2;Temp;Humidity;BMP_temperature;BMP_pressure;BME280_temperature;BME280_humidity;BME280_pressure;Samples;Min_cycle;Max_cycle;Signal;HPM_P1;HPM_P2
2023/06/01 00:00:45;;;;;;;8.52;5.43;;;15.50;99.90;;;;;;2104740;28;20474;-75
2023/06/01 00:01:46;;;;;;;7.47;5.80;;;15.50;99.90;;;;;;2094541;28;20021;-74
2023/06/01 00:02:46;;;;;;;7.32;5.38;;;15.50;99.90;;;;;;2104868;28;20547;-74
2023/06/01 00:03:47;;;;;;;8.15;5.60;;;15.50;99.90;;;;;;2104562;28;20036;-76
2023/06/01 00:04:49;;;;;;;6.32;5.15;;;15.50;99.90;;;;;;2104858;28;20129;-74
2023/06/01 00:05:50;;;;;;;6.93;5.53;;;15.50;99.90;;;;;;2113682;28;20490;-75
2023/06/01 00:06:51;;;;;;;8.10;5.47;;;15.50;99.90;;;;;;2102879;28;20067;-75
2023/06/01 00:07:52;;;;;;;7.60;5.43;;;15.40;99.90;;;;;;2102033;28;20510;-75
2023/06/01 00:08:52;;;;;;;8.30;5.28;;;15.40;99.90;;;;;;2113791;28;20028;-75
2023/06/01 00:09:53;;;;;;;8.70;5.80;;;15.40;99.90;;;;;;2113450;28;20091;-75
2023/06/01 00:10:53;;;;;;;7.90;5.38;;;15.40;99.90;;;;;;2096382;28;20398;-75
2023/06/01 00:11:54;;;;;;;7.43;5.60;;;15.40;99.90;;;;;;2094256;28;20450;-74
2023/06/01 00:12:54;;;;;;;9.98;5.75;;;15.30;99.90;;;;;;2104586;28;20095;-74
2023/06/01 00:13:55;;;;;;;6.30;5.30;;;15.30;99.90;;;;;;2087896;28;20029;-74
2023/06/01 00:14:55;;;;;;;7.88;5.32;;;15.30;99.90;;;;;;2096378;28;20020;-75
2023/06/01 00:15:56;;;;;;;8.57;5.43;;;15.30;99.90;;;;;;2104699;28;20135;-75
2023/06/01 00:16:57;;;;;;;8.05;5.57;;;15.30;99.90;;;;;;2099534;28;20028;-74
2023/06/01 00:18:00;;;;;;;9.85;5.72;;;15.20;99.90;;;;;;2094257;28;20021;-75
2023/06/01 00:19:01;;;;;;;8.65;5.70;;;15.30;99.90;;;;;;2113577;28;20043;-74
2023/06/01 00:20:08;;;;;;;7.88;5.80;;;15.30;99.90;;;;;;2113663;28;20036;-75
2023/06/01 00:21:09;;;;;;;11.60;5.60;;;15.20;99.90;;;;;;2105552;28;20040;-74
2023/06/01 00:22:09;;;;;;;7.15;5.43;;;15.20;99.90;;;;;;2111280;28;20023;-74
2023/06/01 00:23:10;;;;;;;8.50;5.53;;;15.20;99.90;;;;;;2113811;28;20031;-74
2023/06/01 00:24:10;;;;;;;9.75;5.35;;;15.20;99.90;;;;;;2113756;28;20214;-74
2023/06/01 00:25:11;;;;;;;8.15;5.13;;;15.20;99.90;;;;;;2104561;28;20027;-74
2023/06/01 00:26:12;;;;;;;9.18;5.68;;;15.20;99.90;;;;;;2088425;28;20423;-74
2023/06/01 00:27:13;;;;;;;6.68;5.28;;;15.20;99.90;;;;;;2102835;28;20112;-74
2023/06/01 00:28:14;;;;;;;9.00;5.68;;;15.20;99.90;;;;;;2108518;28;20027;-75
2023/06/01 00:29:15;;;;;;;6.72;5.10;;;15.10;99.90;;;;;;2104707;28;20046;-76
2023/06/01 00:30:15;;;;;;;7.18;5.50;;;15.10;99.90;;;;;;2104558;28;20486;-73
2023/06/01 00:31:16;;;;;;;7.82;5.60;;;15.10;99.90;;;;;;2113686;28;20051;-74
2023/06/01 00:32:17;;;;;;;8.45;5.60;;;15.10;99.90;;;;;;2094240;28;20112;-72
2023/06/01 00:33:18;;;;;;;9.13;5.70;;;15.10;99.90;;;;;;2096178;28;20033;-75
2023/06/01 00:34:18;;;;;;;9.18;5.55;;;15.10;99.90;;;;;;2113412;28;20024;-75
2023/06/01 00:35:19;;;;;;;7.57;5.10;;;15.10;99.90;;;;;;2096082;28;20020;-74
2023/06/01 00:36:20;;;;;;;8.68;5.40;;;15.10;99.90;;;;;;2096250;28;20645;-73
2023/06/01 00:37:21;;;;;;;7.85;5.55;;;15.10;99.90;;;;;;2101908;28;20059;-73
2023/06/01 00:38:21;;;;;;;8.70;5.55;;;15.10;99.90;;;;;;2087648;28;20013;-73
2023/06/01 00:39:22;;;;;;;7.43;5.55;;;15.10;99.90;;;;;;2087875;28;20110;-74
2023/06/01 00:40:22;;;;;;;7.13;5.43;;;15.10;99.90;;;;;;2096112;28;20025;-74
2023/06/01 00:41:23;;;;;;;9.35;5.30;;;15.10;99.90;;;;;;2096156;28;20491;-74
2023/06/01 00:42:24;;;;;;;7.13;5.20;;;15.00;99.90;;;;;;2102496;28;20046;-75
2023/06/01 00:43:24;;;;;;;8.57;5.50;;;15.00;99.90;;;;;;2113558;28;20326;-73
2023/06/01 00:44:25;;;;;;;8.93;5.57;;;15.00;99.90;;;;;;2113368;28;20024;-75
2023/06/01 00:45:25;;;;;;;8.65;5.53;;;15.00;99.90;;;;;;2095036;28;20488;-73
2023/06/01 00:46:27;;;;;;;8.30;5.60;;;15.00;99.90;;;;;;2087774;28;20100;-73
2023/06/01 00:47:28;;;;;;;7.88;5.63;;;15.00;99.90;;;;;;2102673;28;20107;-73
2023/06/01 00:48:28;;;;;;;7.15;4.97;;;15.00;99.90;;;;;;2113507;28;20027;-74
2023/06/01 00:49:29;;;;;;;8.27;5.50;;;15.00;99.90;;;;;;2113579;28;20658;-74
2023/06/01 00:50:30;;;;;;;7.78;6.00;;;15.00;99.90;;;;;;2113571;28;20024;-73
2023/06/01 00:51:32;;;;;;;8.00;5.80;;;14.90;99.90;;;;;;2113516;28;20045;-74
2023/06/01 00:52:33;;;;;;;7.68;5.43;;;14.90;99.90;;;;;;2111442;28;20023;-73
2023/06/01 00:53:34;;;;;;;7.20;5.70;;;14.90;99.90;;;;;;2104259;28;20095;-74
2023/06/01 00:54:35;;;;;;;9.68;5.80;;;14.90;99.90;;;;;;2104382;28;20510;-74
2023/06/01 00:55:36;;;;;;;8.90;5.65;;;14.90;99.90;;;;;;2095882;28;20028;-74
2023/06/01 00:56:37;;;;;;;7.45;5.90;;;14.80;99.90;;;;;;2095716;28;20037;-73
2023/06/01 00:57:42;;;;;;;9.57;5.43;;;14.80;99.90;;;;;;2102312;28;20429;-74
2023/06/01 00:58:44;;;;;;;9.40;5.68;;;14.80;99.90;;;;;;2096069;28;20463;-74
2023/06/01 00:59:44;;;;;;;7.88;5.35;;;14.80;99.90;;;;;;2104210;28;20136;-73
2023/06/01 01:00:48;;;;;;;7.88;5.88;;;14.80;99.90;;;;;;2104351;28;20031;-74
2023/06/01 01:01:48;;;;;;;7.88;6.13;;;14.80;99.90;;;;;;2102822;28;20035;-74
2023/06/01 01:02:49;;;;;;;7.88;5.63;;;14.80;99.90;;;;;;2104588;28;20480;-74
2023/06/01 01:03:57;;;;;;;8.60;5.63;;;14.70;99.90;;;;;;2104271;28;20057;-73
2023/06/01 01:04:59;;;;;;;7.93;5.88;;;14.70;99.90;;;;;;2096043;28;20086;-73
2023/06/01 01:06:22;;;;;;;9.07;5.70;;;14.70;99.90;;;;;;2103660;28;20120;-73
2023/06/01 01:07:35;;;;;;;10.25;5.85;;;14.70;99.90;;;;;;2078976;28;20036;-73
2023/06/01 01:09:07;;;;;;;8.15;5.80;;;14.70;99.90;;;;;;2094996;28;20029;-73
2023/06/01 01:10:19;;;;;;;10.98;5.93;;;14.70;99.90;;;;;;2096309;28;20072;-73
2023/06/01 01:11:26;;;;;;;8.93;5.80;;;14.70;99.90;;;;;;2105073;28;20032;-73
2023/06/01 01:12:34;;;;;;;7.60;5.70;;;14.70;99.90;;;;;;2104910;28;20027;-74
2023/06/01 01:13:58;;;;;;;8.05;5.90;;;14.70;99.90;;;;;;2108486;28;20027;-73
2023/06/01 01:15:16;;;;;;;8.25;6.15;;;14.70;99.90;;;;;;2099698;28;20518;-75
2023/06/01 01:16:29;;;;;;;8.88;5.82;;;14.70;99.90;;;;;;2095841;28;20051;-75
2023/06/01 01:17:42;;;;;;;9.65;6.30;;;14.70;99.90;;;;;;2094066;28;20090;-75
2023/06/01 01:18:54;;;;;;;8.93;5.72;;;14.70;99.90;;;;;;2102401;28;20031;-75
2023/06/01 01:20:08;;;;;;;7.40;6.00;;;14.70;99.90;;;;;;2098436;28;20102;-75
2023/06/01 01:21:27;;;;;;;10.20;6.03;;;14.70;99.90;;;;;;2098026;28;20024;-74
2023/06/01 01:22:57;;;;;;;8.07;5.55;;;14.60;99.90;;;;;;2109254;28;20027;-74
2023/06/01 01:24:15;;;;;;;8.10;5.63;;;14.60;99.90;;;;;;2102330;28;20044;-74
2023/06/01 01:25:53;;;;;;;9.88;5.75;;;14.60;99.90;;;;;;2094756;28;20048;-74
2023/06/01 01:27:09;;;;;;;10.45;5.70;;;14.60;99.90;;;;;;2102366;28;20039;-74
2023/06/01 01:28:35;;;;;;;8.35;5.88;;;14.60;99.90;;;;;;2104166;28;20030;-74
2023/06/01 01:29:37;;;;;;;9.93;6.40;;;14.60;99.90;;;;;;2098929;28;20058;-75
2023/06/01 01:30:41;;;;;;;9.25;6.07;;;14.60;99.90;;;;;;2095486;28;20046;-74
2023/06/01 01:31:42;;;;;;;8.15;6.18;;;14.60;99.90;;;;;;2104419;28;20573;-74
2023/06/01 01:32:43;;;;;;;9.50;5.78;;;14.60;99.90;;;;;;2102143;28;20032;-74
2023/06/01 01:33:46;;;;;;;7.53;5.70;;;14.50;99.90;;;;;;2095565;28;20052;-74
2023/06/01 01:34:48;;;;;;;10.02;5.90;;;14.50;99.90;;;;;;2104274;28;20036;-73
2023/06/01 01:35:49;;;;;;;7.45;5.78;;;14.50;99.90;;;;;;2095706;28;20058;-73
2023/06/01 01:36:50;;;;;;;12.20;6.30;;;14.50;99.90;;;;;;2092359;28;20471;-74
2023/06/01 01:37:52;;;;;;;10.02;6.07;;;14.50;99.90;;;;;;2071125;28;20040;-73
2023/06/01 01:38:52;;;;;;;8.98;6.32;;;14.40;99.90;;;;;;2089264;28;20036;-74
2023/06/01 01:39:53;;;;;;;7.03;5.75;;;14.40;99.90;;;;;;2095891;28;20119;-74
2023/06/01 01:40:53;;;;;;;8.07;6.20;;;14.40;99.90;;;;;;2087421;28;20029;-74
2023/06/01 01:41:54;;;;;;;9.68;6.13;;;14.40;99.90;;;;;;2093196;28;20035;-74
2023/06/01 01:42:55;;;;;;;10.02;5.95;;;14.40;99.90;;;;;;2087137;28;20072;-73
2023/06/01 01:43:58;;;;;;;9.32;5.82;;;14.40;99.90;;;;;;2095637;28;20454;-73
2023/06/01 01:44:59;;;;;;;10.00;6.07;;;14.40;99.90;;;;;;2095528;28;20443;-74
2023/06/01 01:46:16;;;;;;;10.07;6.18;;;14.30;99.90;;;;;;2104074;28;20040;-74
2023/06/01 01:47:43;;;;;;;9.77;6.18;;;14.30;99.90;;;;;;2104655;28;20056;-74
2023/06/01 01:49:09;;;;;;;8.98;5.75;;;14.30;99.90;;;;;;2108095;28;20051;-73
2023/06/01 01:50:12;;;;;;;11.52;6.20;;;14.30;99.90;;;;;;2094897;28;20072;-74
2023/06/01 01:51:22;;;;;;;8.48;5.85;;;14.20;99.90;;;;;;2095669;28;20542;-74
2023/06/01 01:52:32;;;;;;;8.98;6.28;;;14.20;99.90;;;;;;2088914;28;20037;-74
2023/06/01 01:53:35;;;;;;;8.30;5.60;;;14.20;99.90;;;;;;2092020;28;20029;-74
2023/06/01 01:54:46;;;;;;;8.95;6.13;;;14.20;99.90;;;;;;2095302;28;20035;-74
2023/06/01 01:55:49;;;;;;;7.57;5.82;;;14.20;99.90;;;;;;2088671;28;20566;-73
2023/06/01 01:56:56;;;;;;;8.75;5.90;;;14.20;99.90;;;;;;2102119;28;20016;-74
2023/06/01 01:57:59;;;;;;;8.43;5.80;;;14.10;99.90;;;;;;2104737;28;20036;-74
2023/06/01 01:59:00;;;;;;;8.32;5.90;;;14.10;99.90;;;;;;2103275;28;20054;-74
2023/06/01 02:00:03;;;;;;;7.88;6.07;;;14.10;99.90;;;;;;2095390;28;20052;-74
2023/06/01 02:01:13;;;;;;;8.77;6.18;;;14.10;99.90;;;;;;2097216;28;20098;-74
2023/06/01 02:02:14;;;;;;;8.20;5.82;;;14.10;99.90;;;;;;2110963;28;20108;-73
2023/06/01 02:03:16;;;;;;;10.15;6.22;;;14.10;99.90;;;;;;2104993;28;20031;-74
2023/06/01 02:04:16;;;;;;;8.52;5.90;;;14.00;99.90;;;;;;2112971;28;20022;-73
2023/06/01 02:05:17;;;;;;;8.13;5.97;;;14.00;99.90;;;;;;2103645;28;20066;-73
2023/06/01 02:06:17;;;;;;;9.93;5.70;;;14.00;99.90;;;;;;2093399;28;20519;-74
2023/06/01 02:07:18;;;;;;;8.82;5.80;;;14.00;99.90;;;;;;2103270;28;20020;-74
2023/06/01 02:08:19;;;;;;;10.43;5.88;;;14.00;99.90;;;;;;2099555;28;20209;-74
2023/06/01 02:09:20;;;;;;;9.00;5.72;;;14.00;99.90;;;;;;2095352;28;20075;-74
2023/06/01 02:10:21;;;;;;;8.55;5.93;;;14.00;99.90;;;;;;2087052;28;20024;-74
2023/06/01 02:11:21;;;;;;;7.43;5.60;;;14.00;99.90;;;;;;2093536;28;20452;-74
2023/06/01 02:12:22;;;;;;;7.07;5.72;;;13.90;99.90;;;;;;2103889;28;20028;-74
2023/06/01 02:13:22;;;;;;;9.40;5.78;;;13.90;99.90;;;;;;2095670;28;20147;-74
2023/06/01 02:14:23;;;;;;;10.25;6.30;;;13.90;99.90;;;;;;2095465;28;20029;-74
2023/06/01 02:15:24;;;;;;;7.38;5.47;;;13.90;99.90;;;;;;2096578;28;20528;-74
2023/06/01 02:16:25;;;;;;;8.07;5.70;;;13.90;99.90;;;;;;2103922;28;20024;-74
2023/06/01 02:17:26;;;;;;;6.35;5.10;;;13.90;99.90;;;;;;2102779;28;20129;-74
2023/06/01 02:18:29;;;;;;;10.48;5.88;;;13.90;99.90;;;;;;2102440;28;20025;-74
2023/06/01 02:19:30;;;;;;;8.65;6.18;;;13.80;99.90;;;;;;2110726;28;20028;-74
2023/06/01 02:20:30;;;;;;;6.40;5.63;;;13.80;99.90;;;;;;2101030;28;20025;-74
2023/06/01 02:21:31;;;;;;;9.02;5.70;;;13.80;99.90;;;;;;2090558;28;20048;-74
2023/06/01 02:22:35;;;;;;;10.00;6.05;;;13.80;99.90;;;;;;2089365;28;20029;-73
2023/06/01 02:23:39;;;;;;;7.65;5.80;;;13.80;99.90;;;;;;2104352;28;20032;-74
2023/06/01 02:24:41;;;;;;;8.15;5.65;;;13.80;99.90;;;;;;2104575;28;20028;-74
2023/06/01 02:25:41;;;;;;;10.23;5.93;;;13.80;99.90;;;;;;2103735;28;20032;-74
2023/06/01 02:26:43;;;;;;;9.55;5.90;;;13.70;99.90;;;;;;2098643;28;20029;-75
2023/06/01 02:27:43;;;;;;;8.70;5.82;;;13.70;99.90;;;;;;2111932;28;20073;-75
2023/06/01 02:28:44;;;;;;;11.30;6.20;;;13.70;99.90;;;;;;2108888;28;20203;-75
2023/06/01 02:29:44;;;;;;;8.70;6.00;;;13.70;99.90;;;;;;2108740;28;20027;-75
2023/06/01 02:30:45;;;;;;;8.32;6.10;;;13.70;99.90;;;;;;2112501;28;20469;-75
2023/06/01 02:31:46;;;;;;;8.57;5.65;;;13.70;99.90;;;;;;2110735;28;20031;-75
2023/06/01 02:32:48;;;;;;;9.00;6.07;;;13.70;99.90;;;;;;2112584;28;20070;-74
2023/06/01 02:33:49;;;;;;;11.32;5.80;;;13.70;99.90;;;;;;2103561;28;20031;-75
2023/06/01 02:34:49;;;;;;;8.40;5.57;;;13.70;99.90;;;;;;2103407;28;20032;-75
2023/06/01 02:35:50;;;;;;;9.35;5.63;;;13.70;99.90;;;;;;2112502;28;20041;-73
2023/06/01 02:36:51;;;;;;;9.55;6.03;;;13.70;99.90;;;;;;2101436;28;20400;-73
2023/06/01 02:37:52;;;;;;;7.60;5.60;;;13.70;99.90;;;;;;2095319;28;20098;-74
2023/06/01 02:38:52;;;;;;;8.57;5.72;;;13.70;99.90;;;;;;2103367;28;20034;-73
2023/06/01 02:39:53;;;;;;;9.98;5.95;;;13.70;99.90;;;;;;2112630;28;20027;-74
2023/06/01 02:40:55;;;;;;;8.20;5.93;;;13.70;99.90;;;;;;2103327;28;20052;-74
2023/06/01 02:41:56;;;;;;;8.60;5.60;;;13.70;99.90;;;;;;2098935;28;20135;-74
2023/06/01 02:42:56;;;;;;;9.10;5.90;;;13.70;99.90;;;;;;2104010;28;20028;-74
2023/06/01 02:43:57;;;;;;;8.27;6.05;;;13.70;99.90;;;;;;2103532;28;20051;-74
2023/06/01 02:44:59;;;;;;;9.48;6.18;;;13.70;99.90;;;;;;2094891;28;20031;-74
2023/06/01 02:45:59;;;;;;;9.20;5.88;;;13.70;99.90;;;;;;2095241;28;20024;-74
2023/06/01 02:47:00;;;;;;;8.13;5.88;;;13.70;99.90;;;;;;2101505;28;20082;-74
2023/06/01 02:48:01;;;;;;;9.32;6.25;;;13.60;99.90;;;;;;2095137;28;20033;-74
2023/06/01 02:49:03;;;;;;;8.18;5.60;;;13.60;99.90;;;;;;2095521;28;20028;-74
2023/06/01 02:50:05;;;;;;;10.77;6.20;;;13.60;99.90;;;;;;2087567;28;20037;-74
2023/06/01 02:51:06;;;;;;;8.55;6.15;;;13.60;99.90;;;;;;2087143;28;20033;-74
2023/06/01 02:52:07;;;;;;;8.52;6.03;;;13.60;99.90;;;;;;2077030;28;20029;-74
2023/06/01 02:53:08;;;;;;;11.77;5.88;;;13.70;99.90;;;;;;2087213;28;20044;-74
2023/06/01 02:54:08;;;;;;;8.73;6.13;;;13.60;99.90;;;;;;2095323;28;20039;-74
2023/06/01 02:55:09;;;;;;;8.27;6.30;;;13.60;99.90;;;;;;2103551;28;20552;-74
2023/06/01 02:56:30;;;;;;;10.38;5.85;;;13.60;99.90;;;;;;2099408;28;20039;-74
2023/06/01 02:57:48;;;;;;;10.05;6.20;;;13.60;99.90;;;;;;2092164;28;20029;-74
2023/06/01 02:58:50;;;;;;;9.93;6.10;;;13.60;99.90;;;;;;2102861;28;20028;-74
2023/06/01 02:59:55;;;;;;;8.82;5.68;;;13.60;99.90;;;;;;2095104;28;20135;-74
2023/06/01 03:00:59;;;;;;;8.85;6.15;;;13.60;99.90;;;;;;2079897;28;20025;-74
2023/06/01 03:02:00;;;;;;;10.10;6.40;;;13.50;99.90;;;;;;2085971;28;20043;-74
2023/06/01 03:03:03;;;;;;;11.23;6.32;;;13.50;99.90;;;;;;2094884;28;20021;-74
2023/06/01 03:04:04;;;;;;;10.75;6.50;;;13.50;99.90;;;;;;2095181;28;20069;-73
2023/06/01 03:05:07;;;;;;;8.50;6.25;;;13.50;99.90;;;;;;2087378;28;20033;-74
2023/06/01 03:06:08;;;;;;;10.15;5.90;;;13.50;99.90;;;;;;2094127;28;20542;-73
2023/06/01 03:07:27;;;;;;;9.02;5.75;;;13.50;99.90;;;;;;2099662;28;20795;-74
2023/06/01 03:08:32;;;;;;;9.25;5.93;;;13.50;99.90;;;;;;2087444;28;20044;-75
2023/06/01 03:09:32;;;;;;;8.93;6.13;;;13.50;99.90;;;;;;2087039;28;20021;-74
2023/06/01 03:10:53;;;;;;;10.65;6.05;;;13.50;99.90;;;;;;2089462;28;20063;-74
2023/06/01 03:12:01;;;;;;;8.07;6.05;;;13.50;99.90;;;;;;2094009;28;20033;-74
2023/06/01 03:13:05;;;;;;;9.13;5.82;;;13.50;99.90;;;;;;2087370;28;20032;-74
2023/06/01 03:14:05;;;;;;;7.57;5.78;;;13.50;99.90;;;;;;2086441;28;20051;-74
2023/06/01 03:15:06;;;;;;;8.80;6.30;;;13.50;99.90;;;;;;2094307;28;20111;-74
2023/06/01 03:16:07;;;;;;;9.40;6.10;;;13.50;99.90;;;;;;2094999;28;20040;-74
2023/06/01 03:17:08;;;;;;;8.20;6.25;;;13.50;99.90;;;;;;2093022;28;20025;-74
2023/06/01 03:18:10;;;;;;;7.00;5.63;;;13.50;99.90;;;;;;2086621;28;20060;-74
2023/06/01 03:19:10;;;;;;;9.25;6.03;;;13.50;99.90;;;;;;2086692;28;20025;-74
2023/06/01 03:20:15;;;;;;;10.02;6.07;;;13.50;99.90;;;;;;2094951;28;20123;-75
2023/06/01 03:21:16;;;;;;;8.95;5.70;;;13.50;99.90;;;;;;2093521;28;20031;-73
2023/06/01 03:22:17;;;;;;;7.80;6.05;;;13.50;99.90;;;;;;2095131;28;20471;-73
2023/06/01 03:23:17;;;;;;;8.32;6.10;;;13.50;99.90;;;;;;2103124;28;20517;-73
2023/06/01 03:24:18;;;;;;;7.93;5.80;;;13.50;99.90;;;;;;2103190;28;20031;-73
2023/06/01 03:25:19;;;;;;;7.75;5.68;;;13.50;99.90;;;;;;2094851;28;20564;-73
2023/06/01 03:26:20;;;;;;;7.30;5.70;;;13.50;99.90;;;;;;2092998;28;20056;-73
2023/06/01 03:27:22;;;;;;;8.75;5.85;;;13.60;99.90;;;;;;2086808;28;20052;-74
2023/06/01 03:28:22;;;;;;;8.63;6.10;;;13.60;99.90;;;;;;2102544;28;20020;-74
2023/06/01 03:29:23;;;;;;;10.85;5.90;;;13.60;99.90;;;;;;2112137;28;20032;-74
2023/06/01 03:30:23;;;;;;;7.28;5.50;;;13.50;99.90;;;;;;2103350;28;20063;-75
2023/06/01 03:31:24;;;;;;;9.55;6.03;;;13.50;99.90;;;;;;2092870;28;20028;-74
2023/06/01 03:32:30;;;;;;;8.43;6.03;;;13.50;99.90;;;;;;2095783;28;20115;-74
2023/06/01 03:33:33;;;;;;;8.88;5.88;;;13.50;99.90;;;;;;2094973;28;20025;-74
2023/06/01 03:34:36;;;;;;;8.90;6.18;;;13.50;99.90;;;;;;2103180;28;20709;-75
2023/06/01 03:35:37;;;;;;;8.27;6.00;;;13.50;99.90;;;;;;2103487;28;20097;-74
2023/06/01 03:36:38;;;;;;;8.18;5.82;;;13.50;99.90;;;;;;2101464;28;20024;-75
2023/06/01 03:37:41;;;;;;;11.85;8.95;;;13.50;99.90;;;;;;2103110;28;20499;-75
2023/06/01 03:38:42;;;;;;;10.40;6.68;;;13.60;99.90;;;;;;2095179;28;20064;-74
2023/06/01 03:39:43;;;;;;;8.25;6.53;;;13.60;99.90;;;;;;2094893;28;20029;-77
2023/06/01 03:40:46;;;;;;;11.80;7.15;;;13.60;99.90;;;;;;2095210;28;20029;-74
2023/06/01 03:41:47;;;;;;;8.88;6.35;;;13.60;99.90;;;;;;2092800;28;20124;-73
2023/06/01 03:42:48;;;;;;;7.82;6.13;;;13.60;99.90;;;;;;2095053;28;20035;-71
2023/06/01 03:43:49;;;;;;;8.13;6.30;;;13.60;99.90;;;;;;2094694;28;20129;-77
2023/06/01 03:44:51;;;;;;;8.77;6.07;;;13.70;99.90;;;;;;2094947;28;20638;-77
2023/06/01 03:45:51;;;;;;;10.45;6.15;;;13.70;99.90;;;;;;2103082;28;20043;-77
2023/06/01 03:46:52;;;;;;;8.38;6.22;;;13.70;99.90;;;;;;2096345;28;20445;-76
2023/06/01 03:47:52;;;;;;;7.95;6.07;;;13.80;99.90;;;;;;2088343;28;20426;-76
2023/06/01 03:48:53;;;;;;;9.30;5.93;;;13.80;99.90;;;;;;2100223;28;20640;-77
2023/06/01 03:49:53;;;;;;;10.48;6.18;;;13.80;99.90;;;;;;2094535;28;20588;-76
2023/06/01 03:50:54;;;;;;;7.28;5.63;;;13.80;99.90;;;;;;2094811;28;20466;-76
2023/06/01 03:51:55;;;;;;;8.40;5.90;;;13.80;99.90;;;;;;2101163;28;20012;-76
2023/06/01 03:52:55;;;;;;;8.70;5.55;;;13.80;99.90;;;;;;2103281;28;20475;-75
2023/06/01 03:53:56;;;;;;;8.82;5.53;;;13.90;99.90;;;;;;2102963;28;20063;-74
2023/06/01 03:54:58;;;;;;;7.38;6.10;;;13.90;99.90;;;;;;2103296;28;20098;-76
2023/06/01 03:56:27;;;;;;;8.85;5.82;;;13.90;99.90;;;;;;2101282;28;20502;-76
2023/06/01 03:57:31;;;;;;;9.65;6.05;;;14.00;99.90;;;;;;2095371;28;20028;-76
2023/06/01 03:58:31;;;;;;;8.27;5.78;;;14.00;99.90;;;;;;2094603;28;20515;-76
2023/06/01 03:59:33;;;;;;;10.40;5.72;;;14.00;99.90;;;;;;2094391;28;20124;-76
2023/06/01 04:00:33;;;;;;;10.13;5.95;;;14.10;99.90;;;;;;2095032;28;20031;-76
2023/06/01 04:01:39;;;;;;;9.20;5.60;;;14.10;99.90;;;;;;2085447;28;20087;-76
2023/06/01 04:02:40;;;;;;;8.25;5.90;;;14.10;99.90;;;;;;2096107;28;20024;-76
2023/06/01 04:03:43;;;;;;;7.93;5.85;;;14.20;99.90;;;;;;2094533;28;20032;-76
2023/06/01 04:04:47;;;;;;;9.07;5.85;;;14.20;99.90;;;;;;2095270;28;20040;-76
2023/06/01 04:05:50;;;;;;;8.73;6.22;;;14.30;99.90;;;;;;2094549;28;20040;-77
2023/06/01 04:06:51;;;;;;;7.68;5.85;;;14.30;99.90;;;;;;2093141;28;20706;-76
2023/06/01 04:07:54;;;;;;;8.60;5.90;;;14.40;99.90;;;;;;2100185;28;20883;-76
2023/06/01 04:09:00;;;;;;;10.52;5.53;;;14.50;99.90;;;;;;2101010;28;20040;-77
2023/06/01 04:10:01;;;;;;;9.32;5.90;;;14.60;99.90;;;;;;2103833;28;20020;-77
2023/06/01 04:11:01;;;;;;;8.43;5.65;;;14.70;99.90;;;;;;2111469;28;20027;-77
2023/06/01 04:12:02;;;;;;;10.07;6.18;;;14.80;99.90;;;;;;2079839;28;20453;-77
2023/06/01 04:13:04;;;;;;;12.68;6.75;;;14.90;99.90;;;;;;2077037;28;20083;-76
2023/06/01 04:14:04;;;;;;;10.05;6.80;;;15.00;99.90;;;;;;2102360;28;20028;-75
2023/06/01 04:15:06;;;;;;;10.13;6.32;;;15.00;99.90;;;;;;2103008;28;20070;-77
2023/06/01 04:16:06;;;;;;;9.15;6.18;;;15.10;99.90;;;;;;2094483;28;20140;-76
2023/06/01 04:17:09;;;;;;;9.20;5.57;;;15.10;99.90;;;;;;2093158;28;20384;-76
2023/06/01 04:18:12;;;;;;;9.52;6.18;;;15.20;99.90;;;;;;2086267;28;20033;-76
2023/06/01 04:19:28;;;;;;;10.80;6.07;;;15.30;99.90;;;;;;2086784;28;20066;-77
2023/06/01 04:20:35;;;;;;;8.93;5.82;;;15.40;99.90;;;;;;2088711;28;20029;-76
2023/06/01 04:21:36;;;;;;;10.30;6.13;;;15.50;99.90;;;;;;2096612;28;20059;-77
2023/06/01 04:22:38;;;;;;;9.50;5.65;;;15.50;99.90;;;;;;2113088;28;20028;-76
2023/06/01 04:23:42;;;;;;;9.55;5.90;;;15.60;99.90;;;;;;2104905;28;20066;-78
2023/06/01 04:24:43;;;;;;;9.90;5.72;;;15.70;99.90;;;;;;2104376;28;20032;-77
2023/06/01 04:25:44;;;;;;;9.20;5.93;;;15.70;99.90;;;;;;2095859;28;20166;-76
2023/06/01 04:26:46;;;;;;;9.80;6.03;;;15.80;99.90;;;;;;2094368;28;20102;-77
2023/06/01 04:27:51;;;;;;;8.27;5.93;;;15.90;99.90;;;;;;2096019;28;20091;-77
2023/06/01 04:28:56;;;;;;;8.77;5.63;;;16.00;99.90;;;;;;2096456;28;20147;-77
2023/06/01 04:29:58;;;;;;;10.13;5.70;;;16.10;99.90;;;;;;2083574;28;20036;-76
2023/06/01 04:31:00;;;;;;;8.55;5.95;;;16.20;99.90;;;;;;2088239;28;20480;-76
2023/06/01 04:32:01;;;;;;;9.40;5.85;;;16.30;99.90;;;;;;2094159;28;20179;-76
2023/06/01 04:33:02;;;;;;;9.80;5.35;;;16.40;99.90;;;;;;2095454;28;20638;-76
2023/06/01 04:34:05;;;;;;;10.77;5.60;;;16.60;99.90;;;;;;2096214;28;20071;-77
2023/06/01 04:35:07;;;;;;;9.32;5.70;;;16.70;99.90;;;;;;2096347;28;20119;-75
2023/06/01 04:36:09;;;;;;;9.77;6.25;;;16.90;99.90;;;;;;2091131;28;20035;-76
2023/06/01 04:37:12;;;;;;;9.23;5.72;;;17.00;99.90;;;;;;2094327;28;20090;-77
2023/06/01 04:38:13;;;;;;;9.50;6.22;;;17.20;99.90;;;;;;2088257;28;20029;-78
2023/06/01 04:39:14;;;;;;;11.68;5.72;;;17.40;99.90;;;;;;2096286;28;20044;-76
2023/06/01 04:40:15;;;;;;;11.38;5.93;;;17.60;99.90;;;;;;2104411;28;20024;-77
2023/06/01 04:41:17;;;;;;;12.65;5.95;;;17.80;99.90;;;;;;2094276;28;20028;-77
2023/06/01 04:42:18;;;;;;;15.10;5.72;;;18.00;99.90;;;;;;2104641;28;20505;-77
2023/06/01 04:43:19;;;;;;;7.60;5.15;;;18.10;99.90;;;;;;2113467;28;20035;-76
2023/06/01 04:44:21;;;;;;;10.27;5.88;;;18.30;99.90;;;;;;2113363;28;20142;-77
2023/06/01 04:45:23;;;;;;;7.43;5.53;;;18.40;99.90;;;;;;2104340;28;20024;-77
2023/06/01 04:46:26;;;;;;;11.63;5.68;;;18.40;99.90;;;;;;2094162;28;20025;-77
2023/06/01 04:47:29;;;;;;;8.35;5.60;;;18.50;99.90;;;;;;2096818;28;20024;-76
2023/06/01 04:48:32;;;;;;;10.57;5.45;;;18.40;99.90;;;;;;2104156;28;20024;-76
2023/06/01 04:49:36;;;;;;;10.73;5.57;;;18.40;99.90;;;;;;2096386;28;20036;-76
2023/06/01 04:50:37;;;;;;;8.23;5.78;;;18.50;99.90;;;;;;2095813;28;20059;-76
2023/06/01 04:51:37;;;;;;;8.80;5.32;;;18.60;99.90;;;;;;2093560;28;20032;-77
2023/06/01 04:52:40;;;;;;;8.85;5.60;;;18.70;99.90;;;;;;2104433;28;20035;-77
2023/06/01 04:53:40;;;;;;;11.05;5.80;;;19.00;99.90;;;;;;2103764;28;20463;-77
2023/06/01 04:54:41;;;;;;;10.52;5.57;;;19.10;99.90;;;;;;2095795;28;20032;-77
2023/06/01 04:55:44;;;;;;;9.63;5.85;;;19.20;99.90;;;;;;2087748;28;20526;-77
2023/06/01 04:56:44;;;;;;;8.50;5.47;;;19.30;99.90;;;;;;2082329;28;20035;-77
2023/06/01 04:57:45;;;;;;;8.93;5.68;;;19.50;99.90;;;;;;2103740;28;20024;-76
2023/06/01 04:58:49;;;;;;;8.40;5.40;;;19.70;99.90;;;;;;2103979;28;20031;-77
2023/06/01 04:59:50;;;;;;;8.15;5.53;;;19.90;99.40;;;;;;2104602;28;20035;-76
2023/06/01 05:00:51;;;;;;;8.60;5.40;;;20.00;98.20;;;;;;2104514;28;20032;-77
2023/06/01 05:01:52;;;;;;;9.27;5.30;;;20.10;97.90;;;;;;2099288;28;20434;-76
2023/06/01 05:02:52;;;;;;;8.73;5.82;;;20.30;96.50;;;;;;2096302;28;20043;-76
2023/06/01 05:03:55;;;;;;;7.57;5.10;;;20.20;95.80;;;;;;2092537;28;20060;-76
2023/06/01 05:04:56;;;;;;;9.55;5.65;;;20.30;95.10;;;;;;2101736;28;20024;-77
2023/06/01 05:05:56;;;;;;;12.32;5.72;;;20.30;94.60;;;;;;2095828;28;20036;-76
2023/06/01 05:06:57;;;;;;;11.80;5.53;;;20.30;94.20;;;;;;2085369;28;20082;-76
2023/06/01 05:07:58;;;;;;;8.10;5.20;;;20.40;93.90;;;;;;2093581;28;20543;-76
2023/06/01 05:08:58;;;;;;;8.60;5.30;;;20.50;93.50;;;;;;2095498;28;20090;-76
2023/06/01 05:10:04;;;;;;;11.20;5.50;;;20.50;93.40;;;;;;2095852;28;20038;-77
2023/06/01 05:11:06;;;;;;;10.85;5.38;;;20.50;92.90;;;;;;2096100;28;20028;-77
2023/06/01 05:12:07;;;;;;;7.85;5.20;;;20.50;92.30;;;;;;2094524;28;20024;-78
2023/06/01 05:13:07;;;;;;;9.82;5.45;;;20.60;91.90;;;;;;2103213;28;20526;-77
2023/06/01 05:14:09;;;;;;;8.35;5.28;;;20.70;91.60;;;;;;2095750;28;20024;-77
2023/06/01 05:15:11;;;;;;;10.80;5.50;;;20.80;90.70;;;;;;2095565;28;20469;-76
2023/06/01 05:16:12;;;;;;;9.85;5.72;;;20.90;90.20;;;;;;2103959;28;20032;-77
2023/06/01 05:17:13;;;;;;;7.38;5.03;;;21.00;88.60;;;;;;2094038;28;20021;-78
2023/06/01 05:18:14;;;;;;;8.15;5.47;;;21.10;87.50;;;;;;2095815;28;20028;-76
2023/06/01 05:19:14;;;;;;;8.90;5.00;;;21.20;86.10;;;;;;2087508;28;20025;-76
2023/06/01 05:20:17;;;;;;;10.00;5.10;;;21.30;85.10;;;;;;2087791;28;20136;-76
2023/06/01 05:21:22;;;;;;;7.93;5.28;;;21.50;83.90;;;;;;2086840;28;20111;-75
2023/06/01 05:22:23;;;;;;;12.25;5.75;;;21.60;83.00;;;;;;2095717;28;20028;-76
2023/06/01 05:23:25;;;;;;;15.18;7.03;;;21.60;82.60;;;;;;2103490;28;20032;-75
2023/06/01 05:24:26;;;;;;;15.05;5.70;;;21.70;82.20;;;;;;2103783;28;20055;-76
2023/06/01 05:25:27;;;;;;;9.63;5.30;;;21.70;81.90;;;;;;2095742;28;20869;-75
2023/06/01 05:26:27;;;;;;;6.85;5.00;;;21.70;81.60;;;;;;2102014;28;20028;-76
2023/06/01 05:27:28;;;;;;;9.20;5.30;;;21.80;80.20;;;;;;2104246;28;20395;-75
2023/06/01 05:28:30;;;;;;;9.07;5.47;;;21.80;79.70;;;;;;2095571;28;20030;-76